createdAt,value
2022-11-02T00:02:28.289Z,10.04
2022-11-02T00:05:31.129Z,9.86
2022-11-02T00:08:33.904Z,9.83
2022-11-02T00:11:38.305Z,9.87
2022-11-02T00:14:40.957Z,9.91
2022-11-02T00:17:45.709Z,9.87
2022-11-02T00:20:48.387Z,9.87
2022-11-02T00:23:51.418Z,9.84
2022-11-02T00:26:55.607Z,9.82
2022-11-02T00:29:58.278Z,9.77
2022-11-02T00:33:01.144Z,9.78
2022-11-02T00:36:04.032Z,9.77
2022-11-02T00:39:06.675Z,9.68
2022-11-02T00:42:11.228Z,9.73
2022-11-02T00:45:13.935Z,9.72
2022-11-02T00:48:16.533Z,9.68
2022-11-02T00:51:19.093Z,9.64
2022-11-02T00:54:25.893Z,9.66
2022-11-02T00:57:32.401Z,9.59
2022-11-02T01:00:35.326Z,9.55
2022-11-02T01:03:37.961Z,9.66
2022-11-02T01:06:40.550Z,9.75
2022-11-02T01:09:43.258Z,9.77
2022-11-02T01:12:47.213Z,9.70
2022-11-02T01:15:49.853Z,9.64
2022-11-02T01:18:53.937Z,9.62
2022-11-02T01:21:56.586Z,9.71
2022-11-02T01:24:59.204Z,9.75
2022-11-02T01:28:03.178Z,10.07
2022-11-02T01:31:06.615Z,10.53
2022-11-02T01:34:09.268Z,10.90
2022-11-02T01:37:11.973Z,11.07
2022-11-02T01:40:14.915Z,11.31
2022-11-02T01:43:23.462Z,11.45
2022-11-02T01:46:36.522Z,11.55
2022-11-02T01:49:40.508Z,11.71
2022-11-02T01:52:43.134Z,11.74
2022-11-02T01:55:46.020Z,11.79
2022-11-02T01:58:55.020Z,11.81
2022-11-02T02:01:57.750Z,11.78
2022-11-02T02:05:04.301Z,11.76
2022-11-02T02:08:08.212Z,11.65
2022-11-02T02:11:28.077Z,11.46
2022-11-02T02:14:32.071Z,11.24
2022-11-02T02:17:42.259Z,11.08
2022-11-02T02:20:58.503Z,10.97
2022-11-02T02:24:26.940Z,10.78
2022-11-02T02:27:32.614Z,10.72
2022-11-02T02:30:39.925Z,10.80
2022-11-02T02:33:45.902Z,10.70
2022-11-02T02:36:52.161Z,10.73
2022-11-02T02:39:59.142Z,10.71
2022-11-02T02:43:06.051Z,10.67
2022-11-02T02:46:14.201Z,10.61
2022-11-02T02:49:22.659Z,10.60
2022-11-02T02:52:28.223Z,10.52
2022-11-02T02:55:35.488Z,10.46
2022-11-02T02:58:40.278Z,10.52
2022-11-02T03:01:45.257Z,10.51
2022-11-02T03:04:47.966Z,10.42
2022-11-02T03:07:51.060Z,10.39
2022-11-02T03:10:57.802Z,10.32
2022-11-02T03:14:08.995Z,10.40
2022-11-02T03:17:16.909Z,10.46
2022-11-02T03:20:24.696Z,10.46
2022-11-02T03:23:31.560Z,10.52
2022-11-02T03:26:40.348Z,10.53
2022-11-02T03:29:45.789Z,10.70
2022-11-02T03:32:54.359Z,10.72
2022-11-02T03:35:59.606Z,10.80
2022-11-02T03:39:06.220Z,10.79
2022-11-02T03:42:12.180Z,10.75
2022-11-02T03:45:17.234Z,10.72
2022-11-02T03:48:22.831Z,10.80
2022-11-02T03:51:26.967Z,10.69
2022-11-02T03:54:36.700Z,10.67
2022-11-02T03:57:44.315Z,10.61
2022-11-02T04:00:48.920Z,10.64
2022-11-02T04:03:52.963Z,10.61
2022-11-02T04:06:55.629Z,10.54
2022-11-02T04:09:58.198Z,10.54
2022-11-02T04:13:18.584Z,10.45
2022-11-02T04:16:27.606Z,10.41
2022-11-02T04:19:31.115Z,10.35
2022-11-02T04:22:51.484Z,10.36
2022-11-02T04:25:55.046Z,10.32
2022-11-02T04:28:57.672Z,10.33
2022-11-02T04:32:00.270Z,10.29
2022-11-02T04:35:03.475Z,10.18
2022-11-02T04:38:23.599Z,10.07
2022-11-02T04:41:44.529Z,10.12
2022-11-02T04:44:47.122Z,10.13
2022-11-02T04:47:49.885Z,10.01
2022-11-02T04:50:54.028Z,9.91
2022-11-02T04:53:57.443Z,9.86
2022-11-02T04:57:00.000Z,9.80
2022-11-02T05:00:02.651Z,9.82
2022-11-02T05:03:08.117Z,10.12
2022-11-02T05:06:15.843Z,10.52
2022-11-02T05:09:18.680Z,10.95
2022-11-02T05:12:24.180Z,11.05
2022-11-02T05:15:30.809Z,11.37
2022-11-02T05:18:33.682Z,11.47
2022-11-02T05:21:37.591Z,11.74
2022-11-02T05:24:40.198Z,12.03
2022-11-02T05:27:42.858Z,12.17
2022-11-02T05:30:45.494Z,12.17
2022-11-02T05:33:48.066Z,12.21
2022-11-02T05:36:52.026Z,12.15
2022-11-02T05:39:58.530Z,12.27
2022-11-02T05:43:01.451Z,12.21
2022-11-02T05:46:04.607Z,12.13
2022-11-02T05:49:07.232Z,12.19
2022-11-02T05:52:11.209Z,12.24
2022-11-02T05:55:13.886Z,12.24
2022-11-02T05:58:16.658Z,12.13
2022-11-02T06:01:19.244Z,12.11
2022-11-02T06:04:21.945Z,12.10
2022-11-02T06:07:25.964Z,12.24
2022-11-02T06:10:29.167Z,12.22
2022-11-02T06:13:31.749Z,12.24
2022-11-02T06:16:34.402Z,12.28
2022-11-02T06:19:37.240Z,12.44
2022-11-02T06:22:41.757Z,12.59
2022-11-02T06:25:44.546Z,12.65
2022-11-02T06:28:47.931Z,12.64
2022-11-02T06:31:50.487Z,12.77
2022-11-02T06:34:53.194Z,12.85
2022-11-02T06:37:57.127Z,13.04
2022-11-02T06:41:02.165Z,13.11
2022-11-02T06:44:05.192Z,13.29
2022-11-02T06:47:08.037Z,13.44
2022-11-02T06:50:11.137Z,13.64
2022-11-02T06:53:15.179Z,13.91
2022-11-02T06:56:18.387Z,14.05
2022-11-02T06:59:23.890Z,14.10
2022-11-02T07:02:26.645Z,14.05
2022-11-02T07:05:29.350Z,14.19
2022-11-02T07:08:33.340Z,14.32
2022-11-02T07:11:35.923Z,14.46
2022-11-02T07:14:38.618Z,14.52
2022-11-02T07:17:41.440Z,14.33
2022-11-02T07:20:44.010Z,14.56
2022-11-02T07:23:47.985Z,14.63
2022-11-02T07:26:50.857Z,14.78
2022-11-02T07:29:53.488Z,15.15
2022-11-02T07:32:56.191Z,15.25
2022-11-02T07:35:58.809Z,15.31
2022-11-02T07:39:02.815Z,15.38
2022-11-02T07:42:07.027Z,15.69
2022-11-02T07:45:10.332Z,15.94
2022-11-02T07:48:12.990Z,15.85
2022-11-02T07:51:15.832Z,15.75
2022-11-02T07:54:19.842Z,15.67
2022-11-02T07:57:22.475Z,15.80
2022-11-02T08:00:25.546Z,16.08
2022-11-02T08:03:28.732Z,15.87
2022-11-02T08:06:31.535Z,16.06
2022-11-02T08:09:35.608Z,16.40
2022-11-02T08:12:38.252Z,16.36
2022-11-02T08:15:41.302Z,16.51
2022-11-02T08:18:44.009Z,16.74
2022-11-02T08:21:46.613Z,17.02
2022-11-02T08:24:50.614Z,17.04
2022-11-02T08:27:53.726Z,16.84
2022-11-02T08:30:56.539Z,17.27
2022-11-02T08:33:59.614Z,17.20
2022-11-02T08:37:02.329Z,17.43
2022-11-02T08:40:07.869Z,17.77
2022-11-02T08:43:12.466Z,17.87
2022-11-02T08:46:16.460Z,17.61
2022-11-02T08:49:20.312Z,17.04
2022-11-02T08:52:23.143Z,17.13
2022-11-02T08:55:27.194Z,17.50
2022-11-02T08:58:29.996Z,17.55
2022-11-02T09:01:32.951Z,17.81
2022-11-02T09:04:35.631Z,17.90
2022-11-02T09:07:38.472Z,17.97
2022-11-02T09:10:42.863Z,17.96
2022-11-02T09:13:45.550Z,17.76
2022-11-02T09:16:48.140Z,17.50
2022-11-02T09:19:50.914Z,17.58
2022-11-02T09:22:53.709Z,17.86
2022-11-02T09:25:58.831Z,18.07
2022-11-02T09:29:01.547Z,18.09
2022-11-02T09:32:04.223Z,18.46
2022-11-02T09:35:09.409Z,18.23
2022-11-02T09:38:12.799Z,18.12
2022-11-02T09:41:19.064Z,18.05
2022-11-02T09:44:27.600Z,18.09
2022-11-02T09:51:01.962Z,18.17
2022-11-02T09:54:13.064Z,18.63
2022-11-02T09:57:22.061Z,18.36
2022-11-02T10:00:25.132Z,18.55
2022-11-02T10:03:36.357Z,18.66
2022-11-02T10:06:42.119Z,18.27
2022-11-02T10:09:51.192Z,18.12
2022-11-02T10:12:59.778Z,18.07
2022-11-02T10:16:06.950Z,17.98
2022-11-02T10:19:13.578Z,18.41
2022-11-02T10:22:16.936Z,18.88
2022-11-02T10:25:19.686Z,18.97
2022-11-02T10:28:27.678Z,18.96
2022-11-02T10:31:32.550Z,18.15
2022-11-02T10:34:35.541Z,18.30
2022-11-02T10:37:50.226Z,18.07
2022-11-02T10:41:06.911Z,18.26
2022-11-02T10:44:20.769Z,18.13
2022-11-02T10:47:25.571Z,18.40
2022-11-02T10:50:37.898Z,18.38
2022-11-02T10:53:43.185Z,17.18
2022-11-02T10:56:47.631Z,17.27
2022-11-02T11:00:24.817Z,17.05
2022-11-02T11:03:27.556Z,17.92
2022-11-02T11:06:32.108Z,18.46
2022-11-02T11:09:47.536Z,17.86
2022-11-02T11:12:50.276Z,18.05
2022-11-02T11:15:54.378Z,17.53
2022-11-02T11:22:28.090Z,17.22
2022-11-02T11:25:30.699Z,16.89
2022-11-02T11:28:35.809Z,17.09
2022-11-02T11:31:40.063Z,17.39
2022-11-02T11:34:44.088Z,17.49
2022-11-02T11:37:49.183Z,17.01
2022-11-02T11:40:54.429Z,16.68
2022-11-02T11:43:57.206Z,17.54
2022-11-02T11:47:01.360Z,18.04
2022-11-02T11:50:25.273Z,18.36
2022-11-02T11:53:31.573Z,17.88
2022-11-02T11:56:34.390Z,18.21
2022-11-02T11:59:46.794Z,18.54
2022-11-02T12:03:03.998Z,19.04
2022-11-02T12:06:16.596Z,18.47
2022-11-02T12:09:25.772Z,17.90
2022-11-02T12:12:35.829Z,18.23
2022-11-02T12:15:49.665Z,17.58
2022-11-02T12:19:20.086Z,17.78
2022-11-02T12:22:26.965Z,17.61
2022-11-02T12:25:40.979Z,18.30
2022-11-02T12:28:57.621Z,18.57
2022-11-02T12:32:10.111Z,18.49
2022-11-02T12:35:54.372Z,18.27
2022-11-02T12:39:08.219Z,18.34
2022-11-02T12:42:22.772Z,18.78
2022-11-02T12:45:29.954Z,25.63
2022-11-02T12:48:42.010Z,30.46
2022-11-02T12:51:51.049Z,32.26
2022-11-02T12:54:56.570Z,34.95
2022-11-02T12:58:03.109Z,32.92
2022-11-02T13:01:13.692Z,33.05
2022-11-02T13:04:24.540Z,33.49
2022-11-02T13:07:34.440Z,28.51
2022-11-02T13:10:41.178Z,31.91
2022-11-02T13:13:46.256Z,33.01
2022-11-02T13:16:52.182Z,26.73
2022-11-02T13:19:57.640Z,23.98
2022-11-02T13:23:05.849Z,22.94
2022-11-02T13:26:12.209Z,23.12
2022-11-02T13:29:20.649Z,21.49
2022-11-02T13:32:32.478Z,20.82
2022-11-02T13:35:37.638Z,22.75
2022-11-02T13:38:46.025Z,20.16
2022-11-02T13:42:13.111Z,19.46
2022-11-02T13:45:36.975Z,21.09
2022-11-02T13:48:49.416Z,23.05
2022-11-02T13:51:55.463Z,25.46
2022-11-02T13:55:03.141Z,26.12
2022-11-02T13:58:06.815Z,29.16
2022-11-02T14:01:11.592Z,26.81
2022-11-02T14:04:15.913Z,29.61
2022-11-02T14:07:24.207Z,24.02
2022-11-02T14:10:29.566Z,21.38
2022-11-02T14:14:08.410Z,19.49
2022-11-02T14:17:13.431Z,20.20
2022-11-02T14:20:34.697Z,20.45
2022-11-02T14:23:39.384Z,20.11
2022-11-02T14:26:57.077Z,19.66
2022-11-02T14:30:00.211Z,19.23
2022-11-02T14:33:05.219Z,19.08
2022-11-02T14:36:11.386Z,19.60
2022-11-02T14:39:18.590Z,21.27
2022-11-02T14:42:44.116Z,20.46
2022-11-02T14:45:57.546Z,19.52
2022-11-02T14:49:02.020Z,19.08
2022-11-02T14:52:08.755Z,19.05
2022-11-02T14:55:27.505Z,19.05
2022-11-02T14:58:34.411Z,19.75
2022-11-02T15:01:49.890Z,21.57
2022-11-02T15:04:54.142Z,24.75
2022-11-02T15:07:59.935Z,23.66
2022-11-02T15:11:36.061Z,21.09
2022-11-02T15:15:00.873Z,18.88
2022-11-02T15:18:33.812Z,17.70
2022-11-02T15:21:36.566Z,17.00
2022-11-02T15:24:39.906Z,16.50
2022-11-02T15:27:42.686Z,16.03
2022-11-02T15:30:48.399Z,15.81
2022-11-02T15:33:53.753Z,15.71
2022-11-02T15:36:57.123Z,15.46
2022-11-02T15:40:02.121Z,15.24
2022-11-02T15:43:11.154Z,14.95
2022-11-02T15:46:27.737Z,14.69
2022-11-02T15:49:42.463Z,14.48
2022-11-02T15:53:21.554Z,14.28
2022-11-02T15:56:33.445Z,14.11
2022-11-02T15:59:54.933Z,13.90
2022-11-02T16:03:03.995Z,13.67
2022-11-02T16:06:06.855Z,13.49
2022-11-02T16:09:30.977Z,13.34
2022-11-02T16:12:35.783Z,13.09
2022-11-02T16:15:42.254Z,12.92
2022-11-02T16:18:51.018Z,12.77
2022-11-02T16:21:58.463Z,12.76
2022-11-02T16:25:09.798Z,12.72
2022-11-02T16:28:18.783Z,12.63
2022-11-02T16:31:22.467Z,12.49
2022-11-02T16:34:28.816Z,12.43
2022-11-02T16:37:31.690Z,12.40
2022-11-02T16:40:34.389Z,12.38
2022-11-02T16:43:42.974Z,12.21
2022-11-02T16:46:53.498Z,12.19
2022-11-02T16:50:00.473Z,12.17
2022-11-02T16:53:03.328Z,12.17
2022-11-02T16:56:27.845Z,11.98
2022-11-02T16:59:30.490Z,11.87
2022-11-02T17:02:36.062Z,11.77
2022-11-02T17:05:42.871Z,11.65
2022-11-02T17:08:46.443Z,11.55
2022-11-02T17:11:49.443Z,11.56
2022-11-02T17:14:52.121Z,11.55
2022-11-02T17:18:16.505Z,11.58
2022-11-02T17:21:29.235Z,11.60
2022-11-02T17:24:33.199Z,11.61
2022-11-02T17:27:39.383Z,11.66
2022-11-02T17:30:48.391Z,11.64
2022-11-02T17:33:52.029Z,11.53
2022-11-02T17:36:55.961Z,11.46
2022-11-02T17:40:02.072Z,11.40
2022-11-02T17:43:04.865Z,11.29
2022-11-02T17:46:09.578Z,11.23
2022-11-02T17:49:12.181Z,11.25
2022-11-02T17:52:25.480Z,11.11
2022-11-02T17:55:29.628Z,11.02
2022-11-02T17:58:32.329Z,11.11
2022-11-02T18:01:35.144Z,11.14
2022-11-02T18:04:38.417Z,11.12
2022-11-02T18:07:42.400Z,11.03
2022-11-02T18:10:46.209Z,11.04
2022-11-02T18:13:48.822Z,11.01
2022-11-02T18:16:52.870Z,10.88
2022-11-02T18:19:55.538Z,10.83
2022-11-02T18:23:00.755Z,10.90
2022-11-02T18:26:03.357Z,10.87
2022-11-02T18:29:06.170Z,10.82
2022-11-02T18:32:08.982Z,10.83
2022-11-02T18:35:13.335Z,10.71
2022-11-02T18:38:17.382Z,10.63
2022-11-02T18:41:29.871Z,10.70
2022-11-02T18:44:32.618Z,10.67
2022-11-02T18:47:35.498Z,10.66
2022-11-02T18:50:38.313Z,10.47
2022-11-02T18:53:42.264Z,10.30
2022-11-02T18:56:44.979Z,10.19
2022-11-02T18:59:47.692Z,10.17
2022-11-02T19:02:50.309Z,10.27
2022-11-02T19:06:26.672Z,10.31
2022-11-02T19:09:31.698Z,10.30
2022-11-02T19:12:34.340Z,10.26
2022-11-02T19:15:41.394Z,10.30
2022-11-02T19:18:45.261Z,10.20
2022-11-02T19:21:48.671Z,10.24
2022-11-02T19:24:53.340Z,10.25
2022-11-02T19:27:55.936Z,10.18
2022-11-02T19:30:58.544Z,10.14
2022-11-02T19:34:01.533Z,10.13
2022-11-02T19:37:04.497Z,10.19
2022-11-02T19:40:10.040Z,10.23
2022-11-02T19:43:12.627Z,10.10
2022-11-02T19:46:16.368Z,9.96
2022-11-02T19:49:18.977Z,9.79
2022-11-02T19:52:22.370Z,9.86
2022-11-02T19:55:29.355Z,9.80
2022-11-02T19:58:32.394Z,9.71
2022-11-02T20:01:36.932Z,9.68
2022-11-02T20:04:42.591Z,9.74
2022-11-02T20:07:45.319Z,9.79
2022-11-02T20:10:49.241Z,9.86
2022-11-02T20:13:52.528Z,9.94
2022-11-02T20:17:10.840Z,9.74
2022-11-02T20:20:18.275Z,9.62
2022-11-02T20:23:21.381Z,9.63
2022-11-02T20:26:27.343Z,9.67
2022-11-02T20:29:30.539Z,9.63
2022-11-02T20:32:33.124Z,9.64
2022-11-02T20:35:35.961Z,9.60
2022-11-02T20:38:39.188Z,9.59
2022-11-02T20:41:43.198Z,9.50
2022-11-02T20:44:49.262Z,9.48
2022-11-02T20:47:51.904Z,9.46
2022-11-02T20:50:54.763Z,9.32
2022-11-02T20:53:57.417Z,9.25
2022-11-02T20:57:01.365Z,9.22
2022-11-02T21:00:05.362Z,9.24
2022-11-02T21:03:08.146Z,9.36
2022-11-02T21:06:15.780Z,9.34
2022-11-02T21:09:19.181Z,9.37
2022-11-02T21:12:41.136Z,9.40
2022-11-02T21:15:43.989Z,9.28
2022-11-02T21:18:46.849Z,9.18
2022-11-02T21:21:49.466Z,9.20
2022-11-02T21:24:52.044Z,9.21
2022-11-02T21:27:56.551Z,9.29
2022-11-02T21:31:03.365Z,9.33
2022-11-02T21:34:05.931Z,9.26
2022-11-02T21:37:08.529Z,9.20
2022-11-02T21:40:11.902Z,9.18
2022-11-02T21:43:16.142Z,9.17
2022-11-02T21:46:20.012Z,9.17
2022-11-02T21:49:22.861Z,9.16
2022-11-02T21:52:25.420Z,9.22
2022-11-02T21:55:28.037Z,9.26
2022-11-02T21:58:32.273Z,9.32
2022-11-02T22:01:49.825Z,9.41
2022-11-02T22:04:53.489Z,9.43
2022-11-02T22:08:13.678Z,9.38
2022-11-02T22:11:21.376Z,9.24
2022-11-02T22:14:25.292Z,9.19
2022-11-02T22:17:48.547Z,9.24
2022-11-02T22:20:54.761Z,9.36
2022-11-02T22:23:57.884Z,9.43
2022-11-02T22:27:00.554Z,9.56
2022-11-02T22:30:05.063Z,9.51
2022-11-02T22:33:09.160Z,9.45
2022-11-02T22:36:13.745Z,9.27
2022-11-02T22:39:16.413Z,9.18
2022-11-02T22:42:19.017Z,9.14
2022-11-02T22:45:22.912Z,9.19
2022-11-02T22:48:25.502Z,9.15
2022-11-02T22:51:30.013Z,9.09
2022-11-02T22:54:32.596Z,9.06
2022-11-02T22:57:35.150Z,9.10
2022-11-02T23:00:39.527Z,9.06
2022-11-02T23:03:42.180Z,9.02
2022-11-02T23:06:44.790Z,9.00
2022-11-02T23:09:47.402Z,8.88
2022-11-02T23:12:49.981Z,8.79
2022-11-02T23:16:14.081Z,8.75
2022-11-02T23:19:31.044Z,8.94
2022-11-02T23:22:51.627Z,9.08
2022-11-02T23:25:57.249Z,9.10
2022-11-02T23:29:17.421Z,9.07
2022-11-02T23:32:27.369Z,8.98
2022-11-02T23:35:47.637Z,8.91
2022-11-02T23:39:08.431Z,8.95
2022-11-02T23:42:11.030Z,8.97
2022-11-02T23:45:13.792Z,8.99
2022-11-02T23:48:17.773Z,8.94
2022-11-02T23:51:38.206Z,8.97
2022-11-02T23:54:58.590Z,8.93
2022-11-02T23:58:01.164Z,8.93
